createdAt,value
2022-10-03T00:02:00.790Z,0.50
2022-10-03T00:04:45.906Z,0.55
2022-10-03T00:07:22.525Z,0.50
2022-10-03T00:09:53.318Z,0.40
2022-10-03T00:12:38.603Z,0.50
2022-10-03T00:15:17.052Z,0.45
2022-10-03T00:17:59.070Z,0.60
2022-10-03T00:20:28.607Z,0.47
2022-10-03T00:23:05.110Z,0.50
2022-10-03T00:25:50.128Z,0.40
2022-10-03T00:28:44.520Z,0.50
2022-10-03T00:31:16.602Z,0.50
2022-10-03T00:33:43.074Z,0.50
2022-10-03T00:36:16.704Z,0.60
2022-10-03T00:39:22.493Z,0.37
2022-10-03T00:42:17.485Z,0.57
2022-10-03T00:44:43.898Z,0.47
2022-10-03T00:47:29.579Z,0.60
2022-10-03T00:49:57.082Z,0.40
2022-10-03T00:52:45.436Z,0.40
2022-10-03T00:55:42.951Z,0.60
2022-10-03T00:58:34.035Z,0.40
2022-10-03T01:01:48.438Z,0.50
2022-10-03T01:04:17.779Z,0.50
2022-10-03T01:06:53.280Z,0.40
2022-10-03T01:09:22.775Z,0.50
2022-10-03T01:12:11.073Z,0.40
2022-10-03T01:15:02.378Z,0.50
2022-10-03T01:17:47.431Z,0.57
2022-10-03T01:20:54.212Z,0.50
2022-10-03T01:23:57.751Z,0.50
2022-10-03T01:26:57.838Z,0.40
2022-10-03T01:30:04.343Z,0.50
2022-10-03T01:32:45.778Z,0.47
2022-10-03T01:35:22.420Z,0.40
2022-10-03T01:37:54.920Z,0.50
2022-10-03T01:40:29.994Z,0.50
2022-10-03T01:43:06.926Z,0.53
2022-10-03T01:45:53.000Z,0.60
2022-10-03T01:49:13.737Z,0.47
2022-10-03T01:52:02.546Z,0.32
2022-10-03T01:54:44.482Z,0.60
2022-10-03T01:57:13.407Z,0.55
2022-10-03T01:59:59.123Z,0.52
2022-10-03T02:02:33.840Z,0.35
2022-10-03T02:05:09.453Z,0.82
2022-10-03T02:07:51.458Z,0.65
2022-10-03T02:10:35.930Z,0.47
2022-10-03T02:13:14.015Z,0.50
2022-10-03T02:16:03.429Z,0.60
2022-10-03T02:18:38.804Z,0.40
2022-10-03T02:21:23.775Z,0.40
2022-10-03T02:24:03.882Z,0.60
2022-10-03T02:26:45.505Z,0.57
2022-10-03T02:29:33.926Z,0.50
2022-10-03T02:32:47.661Z,0.60
2022-10-03T02:35:26.456Z,0.50
2022-10-03T02:37:55.808Z,0.73
2022-10-03T02:40:22.935Z,0.50
2022-10-03T02:43:27.114Z,0.52
2022-10-03T02:46:21.723Z,0.50
2022-10-03T02:49:06.742Z,0.50
2022-10-03T02:51:54.639Z,0.40
2022-10-03T02:54:27.259Z,0.60
2022-10-03T02:57:17.988Z,0.57
2022-10-03T03:00:14.640Z,0.70
2022-10-03T03:03:05.269Z,0.50
2022-10-03T03:05:53.486Z,0.60
2022-10-03T03:08:58.221Z,0.70
2022-10-03T03:11:56.270Z,0.50
2022-10-03T03:14:41.163Z,1.10
2022-10-03T03:17:08.773Z,0.70
2022-10-03T03:20:33.962Z,0.60
2022-10-03T03:23:19.014Z,0.60
2022-10-03T03:26:04.614Z,0.52
2022-10-03T03:28:56.628Z,0.80
2022-10-03T03:31:44.576Z,0.60
2022-10-03T03:34:26.174Z,0.52
2022-10-03T03:37:06.793Z,0.70
2022-10-03T03:39:57.697Z,0.70
2022-10-03T03:42:52.506Z,0.50
2022-10-03T03:45:48.482Z,0.60
2022-10-03T03:48:38.439Z,0.90
2022-10-03T03:51:17.166Z,0.80
2022-10-03T03:54:02.547Z,0.65
2022-10-03T03:56:41.267Z,0.80
2022-10-03T03:59:38.282Z,0.70
2022-10-03T04:02:07.781Z,0.70
2022-10-03T04:04:43.922Z,0.90
2022-10-03T04:07:41.415Z,0.82
2022-10-03T04:10:23.196Z,0.90
2022-10-03T04:12:49.598Z,0.85
2022-10-03T04:15:34.567Z,0.90
2022-10-03T04:18:58.311Z,0.80
2022-10-03T04:21:51.979Z,0.80
2022-10-03T04:24:48.983Z,0.60
2022-10-03T04:27:46.367Z,0.82
2022-10-03T04:30:20.032Z,0.82
2022-10-03T04:33:15.864Z,0.90
2022-10-03T04:36:07.221Z,0.90
2022-10-03T04:38:49.182Z,0.62
2022-10-03T04:41:27.741Z,0.77
2022-10-03T04:44:03.641Z,0.98
2022-10-03T04:49:07.326Z,1.10
2022-10-03T04:51:55.498Z,0.88
2022-10-03T04:54:48.134Z,1.05
2022-10-03T04:57:23.763Z,0.90
2022-10-03T05:00:03.714Z,1.08
2022-10-03T05:02:41.217Z,0.90
2022-10-03T05:05:16.762Z,0.90
2022-10-03T05:08:04.786Z,0.90
2022-10-03T05:10:42.940Z,0.90
2022-10-03T05:13:33.195Z,0.77
2022-10-03T05:16:06.398Z,1.37
2022-10-03T05:19:04.011Z,0.80
2022-10-03T05:21:48.783Z,0.77
2022-10-03T05:24:41.686Z,0.80
2022-10-03T05:27:26.651Z,1.02
2022-10-03T05:30:17.044Z,0.80
2022-10-03T05:32:54.916Z,1.00
2022-10-03T05:35:26.188Z,1.00
2022-10-03T05:38:17.109Z,1.40
2022-10-03T05:40:48.778Z,1.02
2022-10-03T05:43:39.808Z,0.90
2022-10-03T05:46:32.412Z,1.35
2022-10-03T05:49:27.479Z,0.70
2022-10-03T05:52:15.980Z,1.02
2022-10-03T05:54:54.993Z,0.90
2022-10-03T05:57:53.003Z,1.08
2022-10-03T06:00:19.566Z,1.10
2022-10-03T06:03:26.954Z,0.90
2022-10-03T06:06:44.887Z,0.62
2022-10-03T06:09:42.771Z,0.90
2022-10-03T06:12:10.325Z,0.90
2022-10-03T06:14:57.898Z,1.10
2022-10-03T06:17:46.639Z,0.95
2022-10-03T06:20:35.629Z,1.12
2022-10-03T06:23:30.303Z,1.70
2022-10-03T06:26:26.670Z,1.40
2022-10-03T06:28:59.455Z,1.77
2022-10-03T06:31:35.867Z,1.33
2022-10-03T06:34:17.719Z,1.52
2022-10-03T06:37:26.263Z,1.35
2022-10-03T06:40:09.609Z,1.67
2022-10-03T06:42:54.976Z,1.35
2022-10-03T06:45:55.873Z,1.73
2022-10-03T06:48:41.110Z,1.40
2022-10-03T06:51:29.682Z,1.17
2022-10-03T06:54:19.394Z,1.12
2022-10-03T06:56:55.171Z,1.20
2022-10-03T06:59:48.936Z,1.58
2022-10-03T07:02:27.725Z,1.33
2022-10-03T07:05:25.353Z,1.30
2022-10-03T07:08:22.490Z,2.03
2022-10-03T07:10:49.298Z,1.85
2022-10-03T07:13:18.754Z,1.40
2022-10-03T07:19:22.791Z,1.60
2022-10-03T07:22:23.594Z,1.37
2022-10-03T07:25:24.290Z,1.42
2022-10-03T07:28:31.302Z,1.12
2022-10-03T07:31:23.953Z,1.30
2022-10-03T07:34:11.912Z,1.65
2022-10-03T07:37:24.543Z,1.27
2022-10-03T07:40:35.887Z,1.20
2022-10-03T07:43:11.814Z,1.00
2022-10-03T07:48:29.608Z,1.27
2022-10-03T07:51:50.555Z,0.90
2022-10-03T07:54:35.554Z,1.87
2022-10-03T07:57:05.183Z,1.45
2022-10-03T07:59:31.598Z,1.23
2022-10-03T08:02:56.010Z,1.15
2022-10-03T08:05:54.633Z,1.37
2022-10-03T08:08:39.784Z,1.30
2022-10-03T08:11:45.374Z,1.17
2022-10-03T08:14:44.302Z,1.12
2022-10-03T08:17:55.573Z,1.27
2022-10-03T08:20:52.751Z,1.60
2022-10-03T08:23:37.643Z,1.27
2022-10-03T08:26:17.244Z,1.33
2022-10-03T08:29:08.787Z,1.10
2022-10-03T08:32:06.256Z,1.17
2022-10-03T08:34:39.098Z,1.48
2022-10-03T08:37:12.206Z,1.33
2022-10-03T08:40:13.121Z,1.23
2022-10-03T08:43:00.704Z,1.02
2022-10-03T08:45:45.467Z,0.85
2022-10-03T08:48:41.768Z,1.33
2022-10-03T08:51:41.295Z,1.98
2022-10-03T08:54:27.920Z,1.20
2022-10-03T09:00:06.426Z,1.17
2022-10-03T09:02:35.774Z,1.48
2022-10-03T09:05:26.848Z,1.37
2022-10-03T09:08:08.748Z,1.50
2022-10-03T09:10:36.668Z,1.15
2022-10-03T09:13:06.045Z,1.55
2022-10-03T09:16:00.243Z,1.27
2022-10-03T09:18:29.825Z,0.95
2022-10-03T09:21:21.271Z,1.40
2022-10-03T09:24:14.335Z,1.40
2022-10-03T09:27:10.020Z,1.40
2022-10-03T09:29:59.783Z,1.35
2022-10-03T09:32:48.277Z,1.40
2022-10-03T09:35:36.362Z,1.27
2022-10-03T09:38:09.014Z,1.55
2022-10-03T09:40:54.545Z,1.73
2022-10-03T09:43:48.995Z,1.13
2022-10-03T09:47:09.536Z,1.67
2022-10-03T09:49:48.013Z,1.58
2022-10-03T09:52:39.065Z,1.48
2022-10-03T09:55:20.971Z,1.25
2022-10-03T09:58:24.866Z,1.45
2022-10-03T10:01:02.495Z,1.73
2022-10-03T10:03:47.517Z,1.08
2022-10-03T10:06:38.760Z,1.33
2022-10-03T10:09:36.588Z,1.30
2022-10-03T10:12:37.502Z,1.35
2022-10-03T10:15:25.721Z,1.10
2022-10-03T10:17:52.164Z,1.00
2022-10-03T10:20:41.044Z,1.00
2022-10-03T10:23:38.151Z,1.00
2022-10-03T10:26:47.206Z,1.00
2022-10-03T10:29:23.047Z,0.85
2022-10-03T10:32:01.895Z,1.10
2022-10-03T10:34:53.407Z,1.12
2022-10-03T10:37:22.896Z,1.55
2022-10-03T10:40:17.605Z,0.98
2022-10-03T10:43:18.376Z,1.15
2022-10-03T10:46:06.826Z,1.00
2022-10-03T10:49:11.999Z,1.10
2022-10-03T10:52:06.227Z,1.00
2022-10-03T10:54:39.016Z,0.90
2022-10-03T10:57:26.761Z,0.70
2022-10-03T11:00:15.110Z,1.00
2022-10-03T11:03:16.595Z,0.98
2022-10-03T11:05:47.252Z,0.60
2022-10-03T11:08:49.979Z,0.90
2022-10-03T11:11:29.388Z,1.02
2022-10-03T11:14:20.741Z,0.80
2022-10-03T11:17:06.184Z,0.90
2022-10-03T11:19:57.295Z,0.80
2022-10-03T11:22:51.531Z,0.70
2022-10-03T11:25:37.354Z,0.93
2022-10-03T11:28:19.124Z,0.90
2022-10-03T11:31:05.372Z,1.05
2022-10-03T11:33:50.410Z,0.93
2022-10-03T11:36:44.066Z,0.85
2022-10-03T11:39:40.212Z,0.80
2022-10-03T11:42:39.801Z,0.70
2022-10-03T11:45:14.443Z,1.30
2022-10-03T11:48:15.267Z,0.90
2022-10-03T11:51:00.388Z,0.77
2022-10-03T11:53:31.592Z,0.50
2022-10-03T11:56:30.504Z,0.88
2022-10-03T11:59:26.762Z,0.68
2022-10-03T12:02:05.734Z,0.90
2022-10-03T12:04:53.636Z,0.62
2022-10-03T12:08:16.786Z,0.98
2022-10-03T12:11:15.713Z,0.77
2022-10-03T12:13:44.944Z,1.05
2022-10-03T12:16:25.875Z,1.17
2022-10-03T12:19:06.255Z,1.25
2022-10-03T12:21:52.681Z,1.00
2022-10-03T12:24:32.350Z,0.68
2022-10-03T12:27:31.651Z,0.80
2022-10-03T12:29:59.727Z,0.70
2022-10-03T12:33:01.530Z,0.98
2022-10-03T12:35:52.838Z,0.68
2022-10-03T12:38:50.900Z,0.70
2022-10-03T12:41:57.242Z,0.93
2022-10-03T12:44:48.888Z,0.65
2022-10-03T12:47:56.307Z,0.80
2022-10-03T12:50:41.563Z,0.80
2022-10-03T12:53:20.144Z,0.80
2022-10-03T12:56:04.503Z,0.85
2022-10-03T12:58:45.423Z,0.70
2022-10-03T13:01:40.085Z,0.70
2022-10-03T13:04:40.855Z,0.65
2022-10-03T13:07:36.283Z,1.52
2022-10-03T13:10:17.767Z,1.00
2022-10-03T13:12:50.248Z,1.05
2022-10-03T13:15:19.676Z,0.93
2022-10-03T13:17:55.232Z,0.80
2022-10-03T13:20:39.387Z,0.80
2022-10-03T13:23:09.478Z,0.85
2022-10-03T13:25:45.611Z,0.68
2022-10-03T13:28:18.760Z,0.85
2022-10-03T13:30:54.143Z,0.93
2022-10-03T13:33:28.214Z,0.80
2022-10-03T13:35:58.749Z,1.02
2022-10-03T13:39:02.997Z,1.15
2022-10-03T13:41:47.087Z,0.90
2022-10-03T13:44:20.125Z,0.70
2022-10-03T13:46:54.543Z,0.90
2022-10-03T13:49:35.566Z,0.80
2022-10-03T13:52:23.555Z,0.90
2022-10-03T13:54:56.076Z,0.75
2022-10-03T13:57:28.825Z,0.90
2022-10-03T14:00:12.424Z,0.80
2022-10-03T14:02:48.809Z,0.90
2022-10-03T14:05:38.813Z,0.65
2022-10-03T14:08:31.611Z,0.80
2022-10-03T14:11:19.423Z,0.68
2022-10-03T14:14:14.047Z,0.60
2022-10-03T14:16:45.861Z,0.90
2022-10-03T14:19:18.539Z,0.70
2022-10-03T14:22:06.925Z,0.62
2022-10-03T14:24:45.862Z,0.52
2022-10-03T14:27:46.423Z,0.77
2022-10-03T14:30:14.047Z,0.80
2022-10-03T14:33:02.712Z,0.90
2022-10-03T14:35:52.203Z,0.62
2022-10-03T14:39:00.583Z,0.90
2022-10-03T14:41:33.047Z,0.73
2022-10-03T14:44:00.611Z,0.77
2022-10-03T14:46:29.183Z,0.70
2022-10-03T14:49:00.211Z,0.73
2022-10-03T14:51:28.818Z,0.73
2022-10-03T14:54:17.742Z,0.90
2022-10-03T14:56:46.789Z,0.80
2022-10-03T14:59:27.037Z,0.60
2022-10-03T15:01:55.037Z,0.50
2022-10-03T15:04:34.311Z,0.55
2022-10-03T15:07:03.305Z,0.80
2022-10-03T15:09:38.991Z,0.80
2022-10-03T15:12:24.260Z,0.77
2022-10-03T15:15:15.946Z,0.70
2022-10-03T15:17:50.323Z,0.60
2022-10-03T15:23:39.462Z,0.60
2022-10-03T15:26:09.390Z,0.68
2022-10-03T15:28:42.248Z,0.40
2022-10-03T15:31:14.193Z,0.50
2022-10-03T15:33:40.781Z,1.05
2022-10-03T15:36:26.862Z,0.60
2022-10-03T15:39:04.944Z,0.55
2022-10-03T15:42:01.530Z,0.60
2022-10-03T15:44:39.202Z,0.70
2022-10-03T15:47:12.649Z,0.60
2022-10-03T15:49:48.003Z,0.50
2022-10-03T15:52:20.375Z,0.60
2022-10-03T15:55:11.105Z,0.55
2022-10-03T15:57:43.335Z,0.68
2022-10-03T16:00:22.519Z,0.70
2022-10-03T16:02:53.647Z,0.68
2022-10-03T16:05:21.889Z,0.62
2022-10-03T16:07:54.424Z,0.80
2022-10-03T16:10:22.813Z,0.70
2022-10-03T16:12:53.059Z,0.60
2022-10-03T16:15:24.068Z,0.70
2022-10-03T16:18:32.572Z,0.73
2022-10-03T16:21:01.416Z,0.77
2022-10-03T16:23:40.800Z,0.55
2022-10-03T16:26:08.804Z,0.75
2022-10-03T16:28:39.407Z,0.60
2022-10-03T16:31:08.074Z,0.85
2022-10-03T16:33:39.207Z,1.02
2022-10-03T16:36:09.426Z,0.60
2022-10-03T16:38:39.423Z,0.60
2022-10-03T16:41:17.968Z,1.00
2022-10-03T16:43:55.202Z,0.75
2022-10-03T16:46:21.796Z,0.70
2022-10-03T16:49:06.751Z,0.57
2022-10-03T16:51:38.618Z,0.50
2022-10-03T16:54:05.375Z,0.57
2022-10-03T16:56:41.241Z,0.70
2022-10-03T17:01:50.962Z,0.50
2022-10-03T17:04:25.762Z,0.80
2022-10-03T17:06:55.652Z,0.60
2022-10-03T17:09:48.058Z,0.60
2022-10-03T17:12:23.432Z,0.70
2022-10-03T17:14:50.049Z,0.90
2022-10-03T17:17:44.966Z,0.70
2022-10-03T17:20:14.714Z,0.52
2022-10-03T17:22:54.139Z,0.70
2022-10-03T17:25:50.191Z,0.52
2022-10-03T17:28:31.075Z,1.62
2022-10-03T17:31:00.373Z,0.75
2022-10-03T17:33:32.114Z,1.23
2022-10-03T17:36:23.538Z,0.57
2022-10-03T17:38:50.445Z,0.65
2022-10-03T17:41:21.457Z,0.90
2022-10-03T17:44:12.161Z,0.55
2022-10-03T17:46:44.984Z,0.68
2022-10-03T17:49:26.760Z,1.05
2022-10-03T17:51:53.354Z,0.50
2022-10-03T17:54:20.774Z,0.62
2022-10-03T17:57:01.926Z,0.60
2022-10-03T17:59:30.986Z,0.70
2022-10-03T18:02:01.727Z,0.70
2022-10-03T18:04:36.281Z,0.60
2022-10-03T18:07:25.897Z,0.60
2022-10-03T18:09:54.645Z,0.60
2022-10-03T18:12:35.317Z,1.30
2022-10-03T18:15:20.626Z,0.50
2022-10-03T18:17:56.164Z,0.68
2022-10-03T18:20:47.541Z,0.52
2022-10-03T18:23:53.086Z,0.62
2022-10-03T18:26:43.804Z,0.70
2022-10-03T18:29:19.457Z,0.70
2022-10-03T18:32:10.353Z,0.60
2022-10-03T18:34:46.482Z,0.60
2022-10-03T18:37:29.389Z,0.50
2022-10-03T18:39:56.827Z,0.73
2022-10-03T18:42:27.870Z,0.90
2022-10-03T18:44:55.790Z,0.75
2022-10-03T18:47:35.030Z,0.70
2022-10-03T18:50:18.972Z,0.80
2022-10-03T18:53:15.967Z,0.62
2022-10-03T18:55:47.468Z,0.70
2022-10-03T18:58:25.178Z,0.70
2022-10-03T19:01:11.347Z,0.62
2022-10-03T19:06:23.687Z,0.88
2022-10-03T19:08:55.590Z,0.60
2022-10-03T19:11:31.241Z,0.75
2022-10-03T19:13:58.974Z,0.57
2022-10-03T19:16:34.834Z,0.75
2022-10-03T19:21:34.404Z,0.52
2022-10-03T19:24:12.870Z,0.60
2022-10-03T19:26:45.130Z,1.12
2022-10-03T19:29:15.131Z,0.40
2022-10-03T19:31:53.024Z,0.60
2022-10-03T19:34:20.936Z,0.70
2022-10-03T19:36:49.072Z,0.70
2022-10-03T19:39:15.918Z,0.57
2022-10-03T19:42:01.099Z,0.52
2022-10-03T19:44:27.880Z,0.70
2022-10-03T19:46:58.149Z,0.52
2022-10-03T19:49:31.388Z,0.82
2022-10-03T19:52:34.465Z,0.65
2022-10-03T19:55:13.887Z,0.60
2022-10-03T19:57:54.999Z,0.60
2022-10-03T20:00:23.038Z,0.82
2022-10-03T20:02:56.947Z,0.70
2022-10-03T20:05:42.459Z,0.65
2022-10-03T20:08:18.921Z,0.70
2022-10-03T20:11:06.161Z,0.60
2022-10-03T20:13:32.727Z,0.60
2022-10-03T20:15:59.370Z,0.77
2022-10-03T20:18:33.762Z,1.00
2022-10-03T20:21:00.454Z,0.50
2022-10-03T20:23:28.881Z,0.70
2022-10-03T20:26:10.405Z,0.62
2022-10-03T20:28:51.640Z,0.68
2022-10-03T20:31:25.776Z,0.90
2022-10-03T20:33:53.421Z,1.00
2022-10-03T20:36:25.285Z,0.62
2022-10-03T20:39:11.049Z,0.70
2022-10-03T20:41:58.444Z,0.60
2022-10-03T20:44:49.064Z,1.02
2022-10-03T20:47:40.710Z,0.50
2022-10-03T20:50:22.270Z,0.60
2022-10-03T20:52:59.396Z,0.95
2022-10-03T20:55:39.422Z,0.60
2022-10-03T20:58:36.402Z,0.60
2022-10-03T21:01:09.216Z,0.80
2022-10-03T21:03:43.055Z,0.70
2022-10-03T21:06:25.487Z,0.80
2022-10-03T21:08:52.068Z,0.80
2022-10-03T21:11:23.727Z,0.57
2022-10-03T21:14:21.282Z,0.68
2022-10-03T21:16:52.520Z,0.50
2022-10-03T21:19:34.167Z,0.55
2022-10-03T21:22:03.027Z,0.70
2022-10-03T21:24:44.999Z,0.70
2022-10-03T21:27:13.374Z,0.62
2022-10-03T21:29:44.295Z,0.60
2022-10-03T21:32:24.234Z,0.57
2022-10-03T21:35:13.355Z,0.60
2022-10-03T21:38:10.818Z,0.60
2022-10-03T21:40:48.789Z,0.73
2022-10-03T21:43:33.445Z,0.60
2022-10-03T21:46:17.065Z,0.52
2022-10-03T21:49:03.239Z,0.77
2022-10-03T21:51:52.080Z,0.80
2022-10-03T21:54:41.055Z,0.88
2022-10-03T21:57:35.199Z,0.65
2022-10-03T22:00:11.814Z,0.95
2022-10-03T22:02:50.396Z,0.90
2022-10-03T22:05:41.106Z,0.82
2022-10-03T22:08:24.916Z,0.70
2022-10-03T22:10:57.307Z,0.73
2022-10-03T22:13:24.947Z,0.60
2022-10-03T22:16:20.740Z,0.88
2022-10-03T22:19:20.459Z,0.50
2022-10-03T22:21:46.948Z,0.77
2022-10-03T22:24:29.564Z,0.88
2022-10-03T22:27:16.293Z,0.70
2022-10-03T22:29:53.864Z,0.90
2022-10-03T22:32:48.476Z,0.80
2022-10-03T22:35:47.547Z,0.75
2022-10-03T22:38:15.027Z,0.57
2022-10-03T22:40:41.592Z,0.62
2022-10-03T22:43:08.380Z,0.88
2022-10-03T22:45:39.172Z,0.98
2022-10-03T22:48:11.044Z,0.62
2022-10-03T22:50:40.215Z,0.60
2022-10-03T22:53:06.751Z,0.88
2022-10-03T22:55:33.437Z,0.82
2022-10-03T22:58:00.355Z,0.90
2022-10-03T23:00:29.368Z,0.57
2022-10-03T23:03:10.290Z,0.60
2022-10-03T23:06:05.099Z,0.90
2022-10-03T23:08:31.505Z,0.65
2022-10-03T23:11:09.670Z,0.60
2022-10-03T23:13:43.762Z,0.70
2022-10-03T23:16:48.136Z,0.65
2022-10-03T23:19:35.441Z,0.90
2022-10-03T23:22:01.977Z,0.57
2022-10-03T23:24:39.323Z,0.62
2022-10-03T23:27:24.651Z,0.77
2022-10-03T23:30:13.023Z,0.70
2022-10-03T23:32:48.592Z,0.50
2022-10-03T23:35:18.350Z,0.77
2022-10-03T23:37:46.267Z,0.80
2022-10-03T23:40:17.360Z,0.70
2022-10-03T23:42:45.122Z,0.80
2022-10-03T23:45:15.203Z,0.80
2022-10-03T23:47:47.331Z,0.82
2022-10-03T23:50:24.875Z,0.70
2022-10-03T23:52:56.282Z,0.60
2022-10-03T23:55:33.325Z,0.65
2022-10-03T23:57:59.880Z,0.70
